Zephyrhills, FL

7:09 AM EDT on June 27, 2017 (GMT -0400)
Zephyrhills Municipal

Weather History for KZPH - December, 2012

Change the Weather History Date:

Sunday, December 23, 2012

  Actual Average (KPCM) Record (KPCM)
Temperature  
Mean Temperature 47 °F -  
Max Temperature 66 °F 73 °F 86 °F (2011)
Min Temperature 28 °F 50 °F 26 °F (1973)
Degree Days  
Heating Degree Days 18    
Moisture  
Dew Point 31 °F    
Average Humidity 65    
Maximum Humidity 100    
Minimum Humidity 15    
Precipitation  
Precipitation 0.00 in - - ()
Sea Level Pressure  
Sea Level Pressure 30.24 in    
Wind  
Wind Speed - (North)    
Max Wind Speed -    
Max Gust Speed -    
Visibility 9 miles    
Events Fog    
Averages and records for this station are not official NWS values.
T = Trace of Precipitation, MM = Missing Value Source: NWS Daily Summary

Daily Weather History Graph

Daily Weather History Graph

Search for Another Location

Airport or City:

Trip Planner

Search our weather history database for the weather conditions in past years. The results will help you decide how hot, cold, wet, or windy it might be!

Date:

Astronomy

Dec. 23, 2012 Rise Set
Actual Time 7:17 AM EST 5:38 PM EST
Civil Twilight 6:51 AM EST 6:04 PM EST
Nautical Twilight 6:22 AM EST 6:33 PM EST
Astronomical Twilight 5:53 AM EST 7:02 PM EST
Moon 2:19 PM EST (12/23) 3:09 AM EST (12/23)
Length of Visible Light 11h 12m
Length of Day
10h 21m
Waxing Gibbous, 81% of the Moon is Illuminated
Dec 23
Waxing Gibbous
Dec 28
Full
Jan 4
Last Quarter
Jan 11
New
Jan 18
First Quarter

Hourly Weather History & Observations

Time (EST) Temp. Dew Point Humidity Pressure Visibility Wind Dir Wind Speed Gust Speed Precip Events Conditions
12:15 AM 32.0 °F 30.2 °F 93% 30.28 in 10.0 mi North - - N/A   Clear
12:35 AM 32.0 °F 30.2 °F 93% 30.27 in 10.0 mi North - - N/A   Clear
12:55 AM 32.0 °F 30.2 °F 93% 30.27 in 10.0 mi North - - N/A   Clear
1:15 AM 32.0 °F 30.2 °F 93% 30.27 in 10.0 mi North - - N/A   Clear
1:35 AM 32.0 °F 30.2 °F 93% 30.27 in 10.0 mi North - - N/A   Clear
1:55 AM 32.0 °F 30.2 °F 93% 30.26 in 10.0 mi North - - N/A   Clear
2:15 AM 32.0 °F 32.0 °F 100% 30.26 in 10.0 mi North - - N/A   Clear
2:35 AM 32.0 °F 30.2 °F 93% 30.26 in 0.8 mi North - - N/A   Mist
2:55 AM 30.2 °F 30.2 °F 100% 30.26 in 0.2 mi North - - N/A Fog Light Freezing Fog
3:15 AM 30.2 °F 30.2 °F 100% 30.26 in 1.2 mi North - - N/A   Mist
3:35 AM 30.2 °F 30.2 °F 100% 30.25 in 5.0 mi North - - N/A   Clear
3:55 AM 30.2 °F 30.2 °F 100% 30.25 in 1.2 mi North - - N/A   Mist
4:15 AM 30.2 °F 30.2 °F 100% 30.25 in 0.8 mi North - - N/A   Mist
4:35 AM 30.2 °F 30.2 °F 100% 30.25 in 7.0 mi North - - N/A   Clear
4:55 AM 28.4 °F 28.4 °F 100% 30.25 in 10.0 mi North - - N/A   Clear
5:15 AM 30.2 °F 28.4 °F 93% 30.25 in 10.0 mi North - - N/A   Clear
5:35 AM 30.2 °F 30.2 °F 100% 30.25 in 1.0 mi North - - N/A   Mist
5:55 AM 30.2 °F 30.2 °F 100% 30.26 in 10.0 mi North - - N/A   Clear
6:15 AM 30.2 °F 30.2 °F 100% 30.26 in 10.0 mi North - - N/A   Clear
6:35 AM 30.2 °F 30.2 °F 100% 30.26 in 10.0 mi North - - N/A   Clear
6:55 AM 32.0 °F 30.2 °F 93% 30.27 in 10.0 mi North - - N/A   Clear
7:15 AM 32.0 °F 30.2 °F 93% 30.28 in 10.0 mi North - - N/A   Clear
7:35 AM 32.0 °F 32.0 °F 100% 30.27 in 10.0 mi North - - N/A   Clear
7:55 AM 32.0 °F 32.0 °F 100% 30.28 in 10.0 mi North - - N/A   Clear
8:15 AM 32.0 °F 32.0 °F 100% 30.28 in 10.0 mi North - - N/A   Clear
8:35 AM 35.6 °F 35.6 °F 100% 30.28 in 10.0 mi North - - N/A   Clear
8:55 AM 37.4 °F 35.6 °F 93% 30.29 in 10.0 mi North - - N/A   Clear
9:15 AM 41.0 °F 37.4 °F 87% 30.29 in 10.0 mi North - - N/A   Clear
9:35 AM 46.4 °F 37.4 °F 71% 30.30 in 10.0 mi North - - N/A   Clear
9:55 AM 51.8 °F 33.8 °F 50% 30.30 in 10.0 mi North - - N/A   Clear
10:15 AM 53.6 °F 30.2 °F 41% 30.29 in 10.0 mi North - - N/A   Clear
10:35 AM 53.6 °F 26.6 °F 35% 30.29 in 10.0 mi North - - N/A   Clear
10:55 AM 55.4 °F 24.8 °F 31% 30.29 in 10.0 mi North - - N/A   Clear
11:15 AM 57.2 °F 24.8 °F 29% 30.28 in 10.0 mi North - - N/A   Clear
11:35 AM 57.2 °F 23.0 °F 27% 30.27 in 10.0 mi North - - N/A   Clear
11:55 AM 59.0 °F 24.8 °F 27% 30.26 in 10.0 mi North - - N/A   Clear
12:15 PM 59.0 °F 24.8 °F 27% 30.25 in 10.0 mi North - - N/A   Clear
12:35 PM 60.8 °F 26.6 °F 27% 30.24 in 10.0 mi North - - N/A   Clear
12:55 PM 60.8 °F 26.6 °F 27% 30.22 in 10.0 mi North - - N/A   Clear
1:15 PM 60.8 °F 24.8 °F 25% 30.22 in 10.0 mi North - - N/A   Clear
1:35 PM 62.6 °F 24.8 °F 24% 30.22 in 10.0 mi North - - N/A   Clear
1:55 PM 62.6 °F 23.0 °F 22% 30.21 in 10.0 mi North - - N/A   Clear
2:15 PM 64.4 °F 23.0 °F 21% 30.20 in 10.0 mi North - - N/A   Clear
2:35 PM 64.4 °F 23.0 °F 21% 30.20 in 10.0 mi North - - N/A   Clear
2:55 PM 64.4 °F 21.2 °F 19% 30.20 in 10.0 mi North - - N/A   Clear
3:15 PM 66.2 °F 19.4 °F 17% 30.20 in 10.0 mi North - - N/A   Clear
3:35 PM 66.2 °F 17.6 °F 15% 30.20 in 10.0 mi North - - N/A   Clear
3:55 PM 64.4 °F 21.2 °F 19% 30.19 in 10.0 mi North - - N/A   Clear
4:15 PM 62.6 °F 21.2 °F 20% 30.20 in 10.0 mi North - - N/A   Clear
4:35 PM 62.6 °F 23.0 °F 22% 30.20 in 10.0 mi North - - N/A   Clear
4:55 PM 60.8 °F 28.4 °F 29% 30.20 in 10.0 mi North - - N/A   Clear
5:15 PM 60.8 °F 30.2 °F 31% 30.19 in 10.0 mi North - - N/A   Clear
5:35 PM 59.0 °F 32.0 °F 36% 30.20 in 10.0 mi North - - N/A   Clear
5:55 PM 55.4 °F 33.8 °F 44% 30.20 in 7.0 mi North - - N/A   Clear
6:15 PM 53.6 °F 37.4 °F 54% 30.19 in 10.0 mi North - - N/A   Clear
6:35 PM 51.8 °F 37.4 °F 58% 30.20 in 10.0 mi North - - N/A   Clear
6:55 PM 51.8 °F 37.4 °F 58% 30.20 in 10.0 mi North - - N/A   Clear
7:15 PM 50.0 °F 37.4 °F 62% 30.19 in 10.0 mi North - - N/A   Clear
7:35 PM 50.0 °F 37.4 °F 62% 30.20 in 10.0 mi North - - N/A   Clear
7:55 PM 50.0 °F 37.4 °F 62% 30.19 in 4.0 mi North - - N/A   Haze
8:15 PM 50.0 °F 39.2 °F 66% 30.19 in 10.0 mi North - - N/A   Clear
8:35 PM 50.0 °F 39.2 °F 66% 30.19 in 10.0 mi North - - N/A   Clear
8:55 PM 50.0 °F 39.2 °F 66% 30.19 in 10.0 mi North - - N/A   Clear
9:15 PM 50.0 °F 41.0 °F 71% 30.20 in 10.0 mi North - - N/A   Clear
9:55 PM 50.0 °F 42.8 °F 76% 30.19 in 10.0 mi North - - N/A   Clear
10:15 PM 50.0 °F 42.8 °F 76% 30.19 in 10.0 mi North - - N/A   Clear
10:35 PM 50.0 °F 41.0 °F 71% 30.20 in 10.0 mi North - - N/A   Clear
10:55 PM 50.0 °F 41.0 °F 71% 30.19 in 10.0 mi North - - N/A   Clear
11:15 PM 50.0 °F 42.8 °F 76% 30.19 in 10.0 mi North - - N/A   Clear
11:35 PM 50.0 °F 42.8 °F 76% 30.18 in 10.0 mi North - - N/A   Clear
11:55 PM 50.0 °F 42.8 °F 76% 30.18 in 10.0 mi North - - N/A   Clear